sensor_id;sensor_type;location;lat;lon;timestamp;P1;durP1;ratioP1;P2;durP2;ratioP2
25917;SDS011;13899;51.174;4.456;2023-01-29T00:01:53;60.90;;;34.33;;
25917;SDS011;13899;51.174;4.456;2023-01-29T00:04:19;50.03;;;26.80;;
25917;SDS011;13899;51.174;4.456;2023-01-29T00:06:44;45.58;;;26.48;;
25917;SDS011;13899;51.174;4.456;2023-01-29T00:09:10;60.53;;;35.47;;
25917;SDS011;13899;51.174;4.456;2023-01-29T00:11:37;62.83;;;35.38;;
25917;SDS011;13899;51.174;4.456;2023-01-29T00:14:03;65.35;;;35.60;;
25917;SDS011;13899;51.174;4.456;2023-01-29T00:18:55;60.37;;;34.33;;
25917;SDS011;13899;51.174;4.456;2023-01-29T00:21:21;63.50;;;35.57;;
25917;SDS011;13899;51.174;4.456;2023-01-29T00:23:47;45.22;;;25.73;;
25917;SDS011;13899;51.174;4.456;2023-01-29T00:26:15;65.63;;;36.95;;
25917;SDS011;13899;51.174;4.456;2023-01-29T00:28:41;51.53;;;28.80;;
25917;SDS011;13899;51.174;4.456;2023-01-29T00:31:07;64.93;;;36.37;;
25917;SDS011;13899;51.174;4.456;2023-01-29T00:33:34;59.97;;;34.25;;
25917;SDS011;13899;51.174;4.456;2023-01-29T00:36:05;60.10;;;36.07;;
25917;SDS011;13899;51.174;4.456;2023-01-29T00:38:32;58.30;;;34.50;;
25917;SDS011;13899;51.174;4.456;2023-01-29T00:41:08;55.95;;;34.50;;
25917;SDS011;13899;51.174;4.456;2023-01-29T00:43:56;61.35;;;35.03;;
25917;SDS011;13899;51.174;4.456;2023-01-29T00:46:42;47.92;;;26.42;;
25917;SDS011;13899;51.174;4.456;2023-01-29T00:49:08;68.57;;;36.93;;
25917;SDS011;13899;51.174;4.456;2023-01-29T00:51:34;64.33;;;38.70;;
25917;SDS011;13899;51.174;4.456;2023-01-29T00:54:01;65.65;;;36.60;;
25917;SDS011;13899;51.174;4.456;2023-01-29T00:56:28;58.15;;;36.10;;
25917;SDS011;13899;51.174;4.456;2023-01-29T00:58:54;57.63;;;35.13;;
25917;SDS011;13899;51.174;4.456;2023-01-29T01:01:22;62.67;;;36.88;;
25917;SDS011;13899;51.174;4.456;2023-01-29T01:04:07;61.25;;;36.28;;
25917;SDS011;13899;51.174;4.456;2023-01-29T01:06:40;61.78;;;35.80;;
25917;SDS011;13899;51.174;4.456;2023-01-29T01:09:06;65.65;;;36.40;;
25917;SDS011;13899;51.174;4.456;2023-01-29T01:11:52;51.47;;;28.87;;
25917;SDS011;13899;51.174;4.456;2023-01-29T01:14:18;51.83;;;28.30;;
25917;SDS011;13899;51.174;4.456;2023-01-29T01:16:44;61.50;;;35.35;;
25917;SDS011;13899;51.174;4.456;2023-01-29T01:19:11;62.25;;;35.25;;
25917;SDS011;13899;51.174;4.456;2023-01-29T01:21:37;63.85;;;36.78;;
25917;SDS011;13899;51.174;4.456;2023-01-29T01:24:03;64.00;;;36.87;;
25917;SDS011;13899;51.174;4.456;2023-01-29T01:26:30;65.28;;;35.22;;
25917;SDS011;13899;51.174;4.456;2023-01-29T01:31:22;58.65;;;34.75;;
25917;SDS011;13899;51.174;4.456;2023-01-29T01:33:48;48.22;;;27.13;;
25917;SDS011;13899;51.174;4.456;2023-01-29T01:36:15;64.60;;;35.95;;
25917;SDS011;13899;51.174;4.456;2023-01-29T01:38:43;68.53;;;36.58;;
25917;SDS011;13899;51.174;4.456;2023-01-29T01:41:15;65.50;;;36.77;;
25917;SDS011;13899;51.174;4.456;2023-01-29T01:43:53;71.55;;;38.47;;
25917;SDS011;13899;51.174;4.456;2023-01-29T01:46:32;65.32;;;35.70;;
25917;SDS011;13899;51.174;4.456;2023-01-29T01:49:02;69.30;;;37.83;;
25917;SDS011;13899;51.174;4.456;2023-01-29T01:51:43;69.47;;;37.50;;
25917;SDS011;13899;51.174;4.456;2023-01-29T01:54:23;70.57;;;37.80;;
25917;SDS011;13899;51.174;4.456;2023-01-29T01:56:54;67.43;;;38.00;;
25917;SDS011;13899;51.174;4.456;2023-01-29T01:59:33;69.70;;;37.67;;
25917;SDS011;13899;51.174;4.456;2023-01-29T02:02:01;80.20;;;38.35;;
25917;SDS011;13899;51.174;4.456;2023-01-29T02:04:46;72.30;;;37.30;;
25917;SDS011;13899;51.174;4.456;2023-01-29T02:07:38;69.18;;;37.55;;
25917;SDS011;13899;51.174;4.456;2023-01-29T02:10:26;68.13;;;37.83;;
25917;SDS011;13899;51.174;4.456;2023-01-29T02:12:55;69.63;;;37.83;;
25917;SDS011;13899;51.174;4.456;2023-01-29T02:15:21;71.10;;;35.90;;
25917;SDS011;13899;51.174;4.456;2023-01-29T02:17:47;50.53;;;29.67;;
25917;SDS011;13899;51.174;4.456;2023-01-29T02:20:17;50.53;;;28.97;;
25917;SDS011;13899;51.174;4.456;2023-01-29T02:28:18;71.30;;;37.10;;
25917;SDS011;13899;51.174;4.456;2023-01-29T02:34:21;70.00;;;37.70;;
25917;SDS011;13899;51.174;4.456;2023-01-29T02:37:02;70.80;;;36.88;;
25917;SDS011;13899;51.174;4.456;2023-01-29T02:39:35;64.70;;;34.55;;
25917;SDS011;13899;51.174;4.456;2023-01-29T02:42:26;62.90;;;36.33;;
25917;SDS011;13899;51.174;4.456;2023-01-29T02:47:39;63.72;;;35.55;;
25917;SDS011;13899;51.174;4.456;2023-01-29T02:52:44;65.93;;;32.83;;
25917;SDS011;13899;51.174;4.456;2023-01-29T02:55:34;69.15;;;34.15;;
25917;SDS011;13899;51.174;4.456;2023-01-29T03:01:01;64.57;;;33.63;;
25917;SDS011;13899;51.174;4.456;2023-01-29T03:03:37;60.53;;;33.28;;
25917;SDS011;13899;51.174;4.456;2023-01-29T03:06:10;60.17;;;33.45;;
25917;SDS011;13899;51.174;4.456;2023-01-29T03:08:55;57.13;;;32.42;;
25917;SDS011;13899;51.174;4.456;2023-01-29T03:11:22;60.78;;;34.20;;
25917;SDS011;13899;51.174;4.456;2023-01-29T03:13:59;64.07;;;34.05;;
25917;SDS011;13899;51.174;4.456;2023-01-29T03:16:42;65.13;;;33.53;;
25917;SDS011;13899;51.174;4.456;2023-01-29T03:19:19;62.25;;;31.98;;
25917;SDS011;13899;51.174;4.456;2023-01-29T03:22:07;59.83;;;32.28;;
25917;SDS011;13899;51.174;4.456;2023-01-29T03:24:40;58.15;;;32.60;;
25917;SDS011;13899;51.174;4.456;2023-01-29T03:30:35;62.67;;;32.40;;
25917;SDS011;13899;51.174;4.456;2023-01-29T03:33:24;60.80;;;31.75;;
25917;SDS011;13899;51.174;4.456;2023-01-29T03:35:54;61.42;;;32.00;;
25917;SDS011;13899;51.174;4.456;2023-01-29T03:38:27;62.63;;;33.20;;
25917;SDS011;13899;51.174;4.456;2023-01-29T03:40:57;60.63;;;32.92;;
25917;SDS011;13899;51.174;4.456;2023-01-29T03:49:14;62.55;;;32.83;;
25917;SDS011;13899;51.174;4.456;2023-01-29T03:59:54;60.92;;;32.28;;
25917;SDS011;13899;51.174;4.456;2023-01-29T04:02:34;60.75;;;32.70;;
25917;SDS011;13899;51.174;4.456;2023-01-29T04:05:13;61.10;;;31.95;;
25917;SDS011;13899;51.174;4.456;2023-01-29T04:07:43;60.20;;;32.10;;
25917;SDS011;13899;51.174;4.456;2023-01-29T04:10:11;47.08;;;23.85;;
25917;SDS011;13899;51.174;4.456;2023-01-29T04:12:59;61.42;;;32.75;;
25917;SDS011;13899;51.174;4.456;2023-01-29T04:15:41;57.50;;;30.80;;
25917;SDS011;13899;51.174;4.456;2023-01-29T04:18:13;65.93;;;31.42;;
25917;SDS011;13899;51.174;4.456;2023-01-29T04:20:40;60.20;;;32.35;;
25917;SDS011;13899;51.174;4.456;2023-01-29T04:23:17;62.92;;;32.95;;
25917;SDS011;13899;51.174;4.456;2023-01-29T04:25:52;54.60;;;29.25;;
25917;SDS011;13899;51.174;4.456;2023-01-29T04:28:39;61.22;;;30.95;;
25917;SDS011;13899;51.174;4.456;2023-01-29T04:31:45;56.92;;;30.45;;
25917;SDS011;13899;51.174;4.456;2023-01-29T04:37:06;57.30;;;31.02;;
25917;SDS011;13899;51.174;4.456;2023-01-29T04:51:04;60.38;;;30.17;;
25917;SDS011;13899;51.174;4.456;2023-01-29T04:53:42;63.30;;;31.55;;
25917;SDS011;13899;51.174;4.456;2023-01-29T04:58:58;60.97;;;31.65;;
25917;SDS011;13899;51.174;4.456;2023-01-29T05:01:29;66.10;;;31.83;;
25917;SDS011;13899;51.174;4.456;2023-01-29T05:03:59;62.80;;;31.70;;
25917;SDS011;13899;51.174;4.456;2023-01-29T05:06:32;59.25;;;30.38;;
25917;SDS011;13899;51.174;4.456;2023-01-29T05:09:02;61.78;;;31.23;;
25917;SDS011;13899;51.174;4.456;2023-01-29T05:11:31;55.95;;;29.33;;
25917;SDS011;13899;51.174;4.456;2023-01-29T05:14:00;57.60;;;29.65;;
25917;SDS011;13899;51.174;4.456;2023-01-29T05:16:37;62.78;;;31.20;;
25917;SDS011;13899;51.174;4.456;2023-01-29T05:19:10;54.80;;;29.17;;
25917;SDS011;13899;51.174;4.456;2023-01-29T05:21:37;65.22;;;31.33;;
25917;SDS011;13899;51.174;4.456;2023-01-29T05:24:08;62.05;;;30.77;;
25917;SDS011;13899;51.174;4.456;2023-01-29T05:26:40;54.28;;;28.70;;
25917;SDS011;13899;51.174;4.456;2023-01-29T05:29:27;59.35;;;32.78;;
25917;SDS011;13899;51.174;4.456;2023-01-29T05:34:28;59.38;;;29.75;;
25917;SDS011;13899;51.174;4.456;2023-01-29T05:36:55;60.20;;;29.92;;
25917;SDS011;13899;51.174;4.456;2023-01-29T05:39:21;57.83;;;29.87;;
25917;SDS011;13899;51.174;4.456;2023-01-29T05:41:47;59.90;;;29.70;;
25917;SDS011;13899;51.174;4.456;2023-01-29T05:44:15;59.53;;;30.85;;
25917;SDS011;13899;51.174;4.456;2023-01-29T05:49:10;55.53;;;28.50;;
25917;SDS011;13899;51.174;4.456;2023-01-29T05:51:36;51.20;;;29.67;;
25917;SDS011;13899;51.174;4.456;2023-01-29T05:54:02;44.90;;;23.37;;
25917;SDS011;13899;51.174;4.456;2023-01-29T05:56:28;60.87;;;29.43;;
25917;SDS011;13899;51.174;4.456;2023-01-29T05:58:54;44.13;;;24.30;;
25917;SDS011;13899;51.174;4.456;2023-01-29T06:03:47;50.00;;;27.40;;
25917;SDS011;13899;51.174;4.456;2023-01-29T06:06:19;54.90;;;28.92;;
25917;SDS011;13899;51.174;4.456;2023-01-29T06:08:45;56.25;;;29.42;;
25917;SDS011;13899;51.174;4.456;2023-01-29T06:11:14;51.00;;;27.70;;
25917;SDS011;13899;51.174;4.456;2023-01-29T06:13:45;58.72;;;29.42;;
25917;SDS011;13899;51.174;4.456;2023-01-29T06:16:13;53.35;;;29.00;;
25917;SDS011;13899;51.174;4.456;2023-01-29T06:18:39;58.08;;;29.42;;
25917;SDS011;13899;51.174;4.456;2023-01-29T06:21:08;66.00;;;30.98;;
25917;SDS011;13899;51.174;4.456;2023-01-29T06:23:37;55.40;;;29.42;;
25917;SDS011;13899;51.174;4.456;2023-01-29T06:26:05;55.75;;;29.35;;
25917;SDS011;13899;51.174;4.456;2023-01-29T06:28:40;59.28;;;28.85;;
25917;SDS011;13899;51.174;4.456;2023-01-29T06:31:06;53.80;;;29.05;;
25917;SDS011;13899;51.174;4.456;2023-01-29T06:33:32;55.13;;;27.93;;
25917;SDS011;13899;51.174;4.456;2023-01-29T06:35:59;51.53;;;27.92;;
25917;SDS011;13899;51.174;4.456;2023-01-29T06:38:27;55.22;;;29.33;;
25917;SDS011;13899;51.174;4.456;2023-01-29T06:40:53;55.00;;;28.45;;
25917;SDS011;13899;51.174;4.456;2023-01-29T06:43:19;50.92;;;28.40;;
25917;SDS011;13899;51.174;4.456;2023-01-29T06:45:51;59.03;;;28.87;;
25917;SDS011;13899;51.174;4.456;2023-01-29T06:48:18;54.75;;;28.13;;
25917;SDS011;13899;51.174;4.456;2023-01-29T06:50:45;54.33;;;27.63;;
25917;SDS011;13899;51.174;4.456;2023-01-29T06:53:15;54.65;;;29.48;;
25917;SDS011;13899;51.174;4.456;2023-01-29T06:55:43;54.72;;;28.23;;
25917;SDS011;13899;51.174;4.456;2023-01-29T06:58:20;47.50;;;22.98;;
25917;SDS011;13899;51.174;4.456;2023-01-29T07:00:51;54.45;;;28.38;;
25917;SDS011;13899;51.174;4.456;2023-01-29T07:03:18;65.03;;;33.83;;
25917;SDS011;13899;51.174;4.456;2023-01-29T07:05:49;64.63;;;37.13;;
25917;SDS011;13899;51.174;4.456;2023-01-29T07:08:17;60.15;;;30.40;;
25917;SDS011;13899;51.174;4.456;2023-01-29T07:10:47;51.55;;;28.33;;
25917;SDS011;13899;51.174;4.456;2023-01-29T07:16:04;55.80;;;29.45;;
25917;SDS011;13899;51.174;4.456;2023-01-29T07:18:31;53.28;;;29.05;;
25917;SDS011;13899;51.174;4.456;2023-01-29T07:21:16;46.65;;;21.88;;
25917;SDS011;13899;51.174;4.456;2023-01-29T07:23:42;48.70;;;26.87;;
25917;SDS011;13899;51.174;4.456;2023-01-29T07:26:08;50.23;;;26.00;;
25917;SDS011;13899;51.174;4.456;2023-01-29T07:28:35;54.22;;;28.40;;
25917;SDS011;13899;51.174;4.456;2023-01-29T07:31:02;52.67;;;28.33;;
25917;SDS011;13899;51.174;4.456;2023-01-29T07:33:29;50.85;;;26.63;;
25917;SDS011;13899;51.174;4.456;2023-01-29T07:35:55;36.20;;;21.10;;
25917;SDS011;13899;51.174;4.456;2023-01-29T07:38:21;47.70;;;26.43;;
25917;SDS011;13899;51.174;4.456;2023-01-29T07:40:48;51.53;;;26.90;;
25917;SDS011;13899;51.174;4.456;2023-01-29T07:43:15;48.05;;;26.92;;
25917;SDS011;13899;51.174;4.456;2023-01-29T07:45:41;34.17;;;19.73;;
25917;SDS011;13899;51.174;4.456;2023-01-29T07:48:08;50.73;;;26.50;;
25917;SDS011;13899;51.174;4.456;2023-01-29T07:50:35;50.70;;;27.15;;
25917;SDS011;13899;51.174;4.456;2023-01-29T07:53:01;39.90;;;21.47;;
25917;SDS011;13899;51.174;4.456;2023-01-29T07:55:28;36.83;;;20.63;;
25917;SDS011;13899;51.174;4.456;2023-01-29T07:58:15;47.28;;;26.38;;
25917;SDS011;13899;51.174;4.456;2023-01-29T08:00:42;51.50;;;27.83;;
25917;SDS011;13899;51.174;4.456;2023-01-29T08:03:37;47.40;;;26.58;;
25917;SDS011;13899;51.174;4.456;2023-01-29T08:06:04;47.40;;;26.98;;
25917;SDS011;13899;51.174;4.456;2023-01-29T08:08:31;51.33;;;28.40;;
25917;SDS011;13899;51.174;4.456;2023-01-29T08:10:59;49.67;;;26.03;;
25917;SDS011;13899;51.174;4.456;2023-01-29T08:13:31;49.67;;;26.73;;
25917;SDS011;13899;51.174;4.456;2023-01-29T08:16:02;53.85;;;28.13;;
25917;SDS011;13899;51.174;4.456;2023-01-29T08:18:35;52.80;;;28.13;;
25917;SDS011;13899;51.174;4.456;2023-01-29T08:21:04;53.10;;;27.00;;
25917;SDS011;13899;51.174;4.456;2023-01-29T08:23:38;50.80;;;26.98;;
25917;SDS011;13899;51.174;4.456;2023-01-29T08:26:16;52.30;;;28.60;;
25917;SDS011;13899;51.174;4.456;2023-01-29T08:28:44;51.03;;;26.58;;
25917;SDS011;13899;51.174;4.456;2023-01-29T08:31:13;39.77;;;21.57;;
25917;SDS011;13899;51.174;4.456;2023-01-29T08:33:41;52.72;;;26.75;;
25917;SDS011;13899;51.174;4.456;2023-01-29T08:36:36;49.65;;;26.33;;
25917;SDS011;13899;51.174;4.456;2023-01-29T08:39:06;54.53;;;28.40;;
25917;SDS011;13899;51.174;4.456;2023-01-29T08:41:53;56.55;;;29.20;;
25917;SDS011;13899;51.174;4.456;2023-01-29T08:44:22;46.38;;;26.10;;
25917;SDS011;13899;51.174;4.456;2023-01-29T08:46:49;47.53;;;25.52;;
25917;SDS011;13899;51.174;4.456;2023-01-29T08:49:28;46.53;;;25.48;;
25917;SDS011;13899;51.174;4.456;2023-01-29T08:51:57;46.05;;;25.70;;
25917;SDS011;13899;51.174;4.456;2023-01-29T08:54:30;47.70;;;25.58;;
25917;SDS011;13899;51.174;4.456;2023-01-29T08:59:26;46.72;;;25.77;;
25917;SDS011;13899;51.174;4.456;2023-01-29T09:04:19;49.00;;;25.67;;
25917;SDS011;13899;51.174;4.456;2023-01-29T09:07:01;47.47;;;26.80;;
25917;SDS011;13899;51.174;4.456;2023-01-29T09:09:27;46.00;;;26.20;;
25917;SDS011;13899;51.174;4.456;2023-01-29T09:11:52;47.57;;;25.30;;
25917;SDS011;13899;51.174;4.456;2023-01-29T09:14:20;45.55;;;25.30;;
25917;SDS011;13899;51.174;4.456;2023-01-29T09:16:49;41.55;;;25.65;;
25917;SDS011;13899;51.174;4.456;2023-01-29T09:19:20;48.92;;;25.95;;
25917;SDS011;13899;51.174;4.456;2023-01-29T09:22:05;43.95;;;25.25;;
25917;SDS011;13899;51.174;4.456;2023-01-29T09:24:37;40.10;;;23.88;;
25917;SDS011;13899;51.174;4.456;2023-01-29T09:27:06;44.65;;;25.02;;
25917;SDS011;13899;51.174;4.456;2023-01-29T09:29:38;41.30;;;24.00;;
25917;SDS011;13899;51.174;4.456;2023-01-29T09:32:05;42.88;;;24.92;;
25917;SDS011;13899;51.174;4.456;2023-01-29T09:34:36;37.83;;;23.50;;
25917;SDS011;13899;51.174;4.456;2023-01-29T09:37:03;37.33;;;19.40;;
25917;SDS011;13899;51.174;4.456;2023-01-29T09:39:35;44.63;;;25.08;;
25917;SDS011;13899;51.174;4.456;2023-01-29T09:47:28;45.40;;;25.57;;
25917;SDS011;13899;51.174;4.456;2023-01-29T09:50:04;41.53;;;23.98;;
25917;SDS011;13899;51.174;4.456;2023-01-29T09:52:42;50.33;;;25.77;;
25917;SDS011;13899;51.174;4.456;2023-01-29T09:58:12;46.95;;;26.27;;
25917;SDS011;13899;51.174;4.456;2023-01-29T10:06:45;41.83;;;24.83;;
25917;SDS011;13899;51.174;4.456;2023-01-29T10:26:54;43.63;;;26.33;;
25917;SDS011;13899;51.174;4.456;2023-01-29T10:29:21;47.38;;;27.05;;
25917;SDS011;13899;51.174;4.456;2023-01-29T10:31:49;50.55;;;28.02;;
25917;SDS011;13899;51.174;4.456;2023-01-29T10:34:30;45.10;;;26.13;;
25917;SDS011;13899;51.174;4.456;2023-01-29T10:37:26;50.03;;;27.02;;
25917;SDS011;13899;51.174;4.456;2023-01-29T10:40:10;47.05;;;25.77;;
25917;SDS011;13899;51.174;4.456;2023-01-29T10:42:47;52.45;;;29.35;;
25917;SDS011;13899;51.174;4.456;2023-01-29T10:45:38;51.72;;;26.33;;
25917;SDS011;13899;51.174;4.456;2023-01-29T10:50:55;44.95;;;25.98;;
25917;SDS011;13899;51.174;4.456;2023-01-29T10:53:39;42.78;;;25.85;;
25917;SDS011;13899;51.174;4.456;2023-01-29T10:56:20;50.35;;;27.10;;
25917;SDS011;13899;51.174;4.456;2023-01-29T10:59:17;46.38;;;27.15;;
25917;SDS011;13899;51.174;4.456;2023-01-29T11:01:58;52.58;;;27.30;;
25917;SDS011;13899;51.174;4.456;2023-01-29T11:04:27;51.40;;;27.98;;
25917;SDS011;13899;51.174;4.456;2023-01-29T11:06:55;45.30;;;26.38;;
25917;SDS011;13899;51.174;4.456;2023-01-29T11:12:18;42.67;;;25.02;;
25917;SDS011;13899;51.174;4.456;2023-01-29T11:14:52;45.70;;;26.40;;
25917;SDS011;13899;51.174;4.456;2023-01-29T11:17:28;46.08;;;25.02;;
25917;SDS011;13899;51.174;4.456;2023-01-29T11:19:55;43.97;;;24.50;;
25917;SDS011;13899;51.174;4.456;2023-01-29T11:22:25;43.70;;;25.23;;
25917;SDS011;13899;51.174;4.456;2023-01-29T11:28:14;49.10;;;24.70;;
25917;SDS011;13899;51.174;4.456;2023-01-29T11:30:34;45.63;;;25.55;;
25917;SDS011;13899;51.174;4.456;2023-01-29T11:35:43;40.67;;;24.30;;
25917;SDS011;13899;51.174;4.456;2023-01-29T11:40:44;36.38;;;20.73;;
25917;SDS011;13899;51.174;4.456;2023-01-29T11:45:56;40.97;;;23.90;;
25917;SDS011;13899;51.174;4.456;2023-01-29T11:48:38;36.60;;;24.38;;
25917;SDS011;13899;51.174;4.456;2023-01-29T11:51:11;43.47;;;25.02;;
25917;SDS011;13899;51.174;4.456;2023-01-29T11:53:48;37.88;;;23.13;;
25917;SDS011;13899;51.174;4.456;2023-01-29T11:56:19;44.00;;;24.67;;
25917;SDS011;13899;51.174;4.456;2023-01-29T11:58:50;37.78;;;22.58;;
25917;SDS011;13899;51.174;4.456;2023-01-29T12:01:26;40.38;;;24.75;;
25917;SDS011;13899;51.174;4.456;2023-01-29T12:04:00;38.72;;;24.08;;
25917;SDS011;13899;51.174;4.456;2023-01-29T12:06:41;38.20;;;21.50;;
25917;SDS011;13899;51.174;4.456;2023-01-29T12:09:16;35.80;;;23.30;;
25917;SDS011;13899;51.174;4.456;2023-01-29T12:11:45;38.75;;;24.65;;
25917;SDS011;13899;51.174;4.456;2023-01-29T12:16:57;34.35;;;21.60;;
25917;SDS011;13899;51.174;4.456;2023-01-29T12:19:41;33.83;;;21.55;;
25917;SDS011;13899;51.174;4.456;2023-01-29T12:22:22;34.80;;;21.80;;
25917;SDS011;13899;51.174;4.456;2023-01-29T12:25:02;34.25;;;23.00;;
25917;SDS011;13899;51.174;4.456;2023-01-29T12:31:11;38.42;;;22.40;;
25917;SDS011;13899;51.174;4.456;2023-01-29T12:34:18;34.05;;;23.00;;
25917;SDS011;13899;51.174;4.456;2023-01-29T12:37:09;35.83;;;22.90;;
25917;SDS011;13899;51.174;4.456;2023-01-29T12:39:43;28.98;;;20.55;;
25917;SDS011;13899;51.174;4.456;2023-01-29T12:42:14;33.87;;;21.50;;
25917;SDS011;13899;51.174;4.456;2023-01-29T12:47:32;38.58;;;22.88;;
25917;SDS011;13899;51.174;4.456;2023-01-29T12:50:27;29.23;;;19.55;;
25917;SDS011;13899;51.174;4.456;2023-01-29T12:52:58;29.10;;;20.30;;
25917;SDS011;13899;51.174;4.456;2023-01-29T12:58:40;31.33;;;20.70;;
25917;SDS011;13899;51.174;4.456;2023-01-29T13:01:22;28.48;;;18.08;;
25917;SDS011;13899;51.174;4.456;2023-01-29T13:04:05;29.13;;;20.80;;
25917;SDS011;13899;51.174;4.456;2023-01-29T13:07:02;27.40;;;20.05;;
25917;SDS011;13899;51.174;4.456;2023-01-29T13:09:38;28.48;;;18.33;;
25917;SDS011;13899;51.174;4.456;2023-01-29T13:12:13;37.45;;;20.63;;
25917;SDS011;13899;51.174;4.456;2023-01-29T13:14:55;32.13;;;20.63;;
25917;SDS011;13899;51.174;4.456;2023-01-29T13:17:39;31.90;;;20.83;;
25917;SDS011;13899;51.174;4.456;2023-01-29T13:20:16;30.23;;;20.33;;
25917;SDS011;13899;51.174;4.456;2023-01-29T13:22:55;28.48;;;20.13;;
25917;SDS011;13899;51.174;4.456;2023-01-29T13:25:39;26.08;;;19.48;;
25917;SDS011;13899;51.174;4.456;2023-01-29T13:28:05;27.87;;;17.70;;
25917;SDS011;13899;51.174;4.456;2023-01-29T13:30:41;24.77;;;19.38;;
25917;SDS011;13899;51.174;4.456;2023-01-29T13:33:13;23.85;;;18.15;;
25917;SDS011;13899;51.174;4.456;2023-01-29T13:35:46;23.05;;;17.48;;
25917;SDS011;13899;51.174;4.456;2023-01-29T13:38:23;35.20;;;20.50;;
25917;SDS011;13899;51.174;4.456;2023-01-29T13:40:53;26.35;;;19.40;;
25917;SDS011;13899;51.174;4.456;2023-01-29T13:43:33;30.73;;;20.60;;
25917;SDS011;13899;51.174;4.456;2023-01-29T13:46:06;29.58;;;18.73;;
25917;SDS011;13899;51.174;4.456;2023-01-29T13:51:15;27.98;;;19.48;;
25917;SDS011;13899;51.174;4.456;2023-01-29T13:53:54;30.75;;;19.35;;
25917;SDS011;13899;51.174;4.456;2023-01-29T13:59:23;24.50;;;17.85;;
25917;SDS011;13899;51.174;4.456;2023-01-29T14:02:24;25.35;;;18.52;;
25917;SDS011;13899;51.174;4.456;2023-01-29T14:05:31;27.80;;;19.05;;
25917;SDS011;13899;51.174;4.456;2023-01-29T14:08:03;27.13;;;19.30;;
25917;SDS011;13899;51.174;4.456;2023-01-29T14:10:30;26.23;;;20.00;;
25917;SDS011;13899;51.174;4.456;2023-01-29T14:18:26;27.48;;;19.20;;
25917;SDS011;13899;51.174;4.456;2023-01-29T14:21:03;27.63;;;20.00;;
25917;SDS011;13899;51.174;4.456;2023-01-29T14:25:58;23.83;;;18.03;;
25917;SDS011;13899;51.174;4.456;2023-01-29T14:28:25;30.05;;;18.30;;
25917;SDS011;13899;51.174;4.456;2023-01-29T14:30:53;26.83;;;19.05;;
25917;SDS011;13899;51.174;4.456;2023-01-29T14:36:13;29.60;;;19.25;;
25917;SDS011;13899;51.174;4.456;2023-01-29T14:38:45;29.50;;;19.67;;
25917;SDS011;13899;51.174;4.456;2023-01-29T14:41:31;28.20;;;18.40;;
25917;SDS011;13899;51.174;4.456;2023-01-29T14:47:04;25.85;;;18.35;;
25917;SDS011;13899;51.174;4.456;2023-01-29T14:49:57;28.95;;;18.73;;
25917;SDS011;13899;51.174;4.456;2023-01-29T14:52:37;23.13;;;18.00;;
25917;SDS011;13899;51.174;4.456;2023-01-29T14:55:06;27.42;;;18.25;;
25917;SDS011;13899;51.174;4.456;2023-01-29T14:57:42;27.58;;;17.75;;
25917;SDS011;13899;51.174;4.456;2023-01-29T15:02:43;25.80;;;17.98;;
25917;SDS011;13899;51.174;4.456;2023-01-29T15:05:11;27.10;;;17.55;;
25917;SDS011;13899;51.174;4.456;2023-01-29T15:07:46;24.90;;;17.73;;
25917;SDS011;13899;51.174;4.456;2023-01-29T15:10:32;24.98;;;18.58;;
25917;SDS011;13899;51.174;4.456;2023-01-29T15:13:13;24.73;;;18.08;;
25917;SDS011;13899;51.174;4.456;2023-01-29T15:15:46;27.90;;;17.35;;
25917;SDS011;13899;51.174;4.456;2023-01-29T15:21:08;49.90;;;21.15;;
25917;SDS011;13899;51.174;4.456;2023-01-29T15:23:36;26.55;;;18.92;;
25917;SDS011;13899;51.174;4.456;2023-01-29T15:26:10;32.80;;;21.17;;
25917;SDS011;13899;51.174;4.456;2023-01-29T15:28:41;31.67;;;19.77;;
25917;SDS011;13899;51.174;4.456;2023-01-29T15:31:14;24.07;;;17.30;;
25917;SDS011;13899;51.174;4.456;2023-01-29T15:33:43;25.35;;;18.23;;
25917;SDS011;13899;51.174;4.456;2023-01-29T15:36:21;31.67;;;19.75;;
25917;SDS011;13899;51.174;4.456;2023-01-29T15:41:43;31.67;;;19.70;;
25917;SDS011;13899;51.174;4.456;2023-01-29T15:44:17;26.83;;;19.13;;
25917;SDS011;13899;51.174;4.456;2023-01-29T15:46:50;29.70;;;19.60;;
25917;SDS011;13899;51.174;4.456;2023-01-29T15:49:35;33.05;;;20.63;;
25917;SDS011;13899;51.174;4.456;2023-01-29T15:52:04;33.80;;;20.10;;
25917;SDS011;13899;51.174;4.456;2023-01-29T15:54:46;28.27;;;19.80;;
25917;SDS011;13899;51.174;4.456;2023-01-29T15:57:54;28.77;;;19.27;;
25917;SDS011;13899;51.174;4.456;2023-01-29T16:00:05;33.40;;;20.77;;
25917;SDS011;13899;51.174;4.456;2023-01-29T16:02:43;31.80;;;19.13;;
25917;SDS011;13899;51.174;4.456;2023-01-29T16:05:10;29.50;;;20.60;;
25917;SDS011;13899;51.174;4.456;2023-01-29T16:07:41;35.33;;;20.67;;
25917;SDS011;13899;51.174;4.456;2023-01-29T16:10:13;35.95;;;22.83;;
25917;SDS011;13899;51.174;4.456;2023-01-29T16:12:50;33.65;;;20.73;;
25917;SDS011;13899;51.174;4.456;2023-01-29T16:17:47;32.30;;;20.83;;
25917;SDS011;13899;51.174;4.456;2023-01-29T16:23:07;31.45;;;20.60;;
25917;SDS011;13899;51.174;4.456;2023-01-29T16:25:42;36.30;;;20.50;;
25917;SDS011;13899;51.174;4.456;2023-01-29T16:28:07;39.93;;;23.10;;
25917;SDS011;13899;51.174;4.456;2023-01-29T16:30:35;33.33;;;22.48;;
25917;SDS011;13899;51.174;4.456;2023-01-29T16:33:03;32.30;;;21.05;;
25917;SDS011;13899;51.174;4.456;2023-01-29T16:35:30;35.42;;;22.02;;
25917;SDS011;13899;51.174;4.456;2023-01-29T16:37:58;32.47;;;20.35;;
25917;SDS011;13899;51.174;4.456;2023-01-29T16:40:31;34.58;;;20.98;;
25917;SDS011;13899;51.174;4.456;2023-01-29T16:45:59;33.70;;;22.05;;
25917;SDS011;13899;51.174;4.456;2023-01-29T16:48:30;39.53;;;22.52;;
25917;SDS011;13899;51.174;4.456;2023-01-29T16:51:01;41.25;;;21.50;;
25917;SDS011;13899;51.174;4.456;2023-01-29T16:53:37;35.95;;;21.00;;
25917;SDS011;13899;51.174;4.456;2023-01-29T16:56:04;36.63;;;22.40;;
25917;SDS011;13899;51.174;4.456;2023-01-29T16:58:32;39.60;;;22.40;;
25917;SDS011;13899;51.174;4.456;2023-01-29T17:01:02;42.70;;;23.00;;
25917;SDS011;13899;51.174;4.456;2023-01-29T17:03:32;36.28;;;22.15;;
25917;SDS011;13899;51.174;4.456;2023-01-29T17:06:21;42.10;;;22.73;;
25917;SDS011;13899;51.174;4.456;2023-01-29T17:08:48;43.13;;;22.90;;
25917;SDS011;13899;51.174;4.456;2023-01-29T17:14:01;39.80;;;24.48;;
25917;SDS011;13899;51.174;4.456;2023-01-29T17:16:31;38.95;;;24.23;;
25917;SDS011;13899;51.174;4.456;2023-01-29T17:18:59;32.65;;;17.92;;
25917;SDS011;13899;51.174;4.456;2023-01-29T17:21:25;35.03;;;18.47;;
25917;SDS011;13899;51.174;4.456;2023-01-29T17:23:52;38.13;;;22.58;;
25917;SDS011;13899;51.174;4.456;2023-01-29T17:26:18;36.00;;;20.10;;
25917;SDS011;13899;51.174;4.456;2023-01-29T17:28:49;37.55;;;21.65;;
25917;SDS011;13899;51.174;4.456;2023-01-29T17:31:16;40.03;;;22.50;;
25917;SDS011;13899;51.174;4.456;2023-01-29T17:36:13;48.53;;;24.17;;
25917;SDS011;13899;51.174;4.456;2023-01-29T17:38:55;44.63;;;23.00;;
25917;SDS011;13899;51.174;4.456;2023-01-29T17:41:24;42.83;;;22.47;;
25917;SDS011;13899;51.174;4.456;2023-01-29T17:43:52;41.58;;;22.73;;
25917;SDS011;13899;51.174;4.456;2023-01-29T17:46:20;39.88;;;24.63;;
25917;SDS011;13899;51.174;4.456;2023-01-29T17:48:54;42.28;;;23.02;;